createdAt,value
2018-01-16T00:01:15.949Z,935.20
2018-01-16T00:02:15.080Z,935.23
2018-01-16T00:02:54.062Z,935.24
2018-01-16T00:03:54.040Z,935.18
2018-01-16T00:04:54.048Z,935.18
2018-01-16T00:06:15.035Z,935.09
2018-01-16T00:07:15.023Z,934.94
2018-01-16T00:07:54.008Z,935.00
2018-01-16T00:08:54.002Z,935.08
2018-01-16T00:09:53.989Z,935.03
2018-01-16T00:11:15.030Z,935.01
2018-01-16T00:12:14.974Z,934.99
2018-01-16T00:12:54.023Z,935.02
2018-01-16T00:13:53.945Z,935.07
2018-01-16T00:14:53.959Z,935.01
2018-01-16T00:16:14.937Z,935.07
2018-01-16T00:17:14.941Z,935.07
2018-01-16T00:17:53.910Z,935.06
2018-01-16T00:18:53.934Z,934.88
2018-01-16T00:19:53.903Z,934.89
2018-01-16T00:21:14.913Z,934.94
2018-01-16T00:22:14.939Z,934.94
2018-01-16T00:22:53.860Z,934.97
2018-01-16T00:23:53.866Z,935.00
2018-01-16T00:24:53.845Z,934.98
2018-01-16T00:26:14.837Z,934.91
2018-01-16T00:27:14.840Z,934.86
2018-01-16T00:27:53.817Z,934.95
2018-01-16T00:28:53.805Z,934.98
2018-01-16T00:29:53.802Z,934.98
2018-01-16T00:31:14.806Z,934.84
2018-01-16T00:32:14.851Z,934.87
2018-01-16T00:32:53.760Z,934.83
2018-01-16T00:33:53.753Z,934.82
2018-01-16T00:34:53.744Z,934.81
2018-01-16T00:36:14.735Z,934.74
2018-01-16T00:37:14.737Z,934.78
2018-01-16T00:37:53.719Z,934.80
2018-01-16T00:38:53.714Z,934.73
2018-01-16T00:39:53.693Z,934.80
2018-01-16T00:41:14.689Z,934.72
2018-01-16T00:42:14.677Z,934.69
2018-01-16T00:42:53.677Z,934.75
2018-01-16T00:43:53.660Z,934.65
2018-01-16T00:44:53.653Z,934.63
2018-01-16T00:46:14.653Z,934.59
2018-01-16T00:47:14.635Z,934.64
2018-01-16T00:47:53.680Z,934.60
2018-01-16T00:48:54.345Z,934.63
2018-01-16T00:49:53.609Z,934.55
2018-01-16T00:51:14.599Z,934.52
2018-01-16T00:52:14.587Z,934.56
2018-01-16T00:52:53.584Z,934.50
2018-01-16T00:53:53.557Z,934.46
2018-01-16T00:54:53.557Z,934.50
2018-01-16T00:56:14.550Z,934.43
2018-01-16T00:57:14.537Z,934.36
2018-01-16T00:57:53.541Z,934.35
2018-01-16T00:58:53.517Z,934.34
2018-01-16T00:59:53.506Z,934.36
2018-01-16T01:01:14.527Z,934.33
2018-01-16T01:02:14.523Z,934.32
2018-01-16T01:02:53.530Z,934.27
2018-01-16T01:03:53.463Z,934.25
2018-01-16T01:04:53.451Z,934.25
2018-01-16T01:06:14.448Z,934.21
2018-01-16T01:07:14.446Z,934.16
2018-01-16T01:07:53.431Z,934.16
2018-01-16T01:08:53.434Z,934.16
2018-01-16T01:09:53.398Z,934.23
2018-01-16T01:11:14.405Z,934.23
2018-01-16T01:12:14.400Z,934.21
2018-01-16T01:12:53.436Z,934.15
2018-01-16T01:13:53.374Z,934.18
2018-01-16T01:14:53.367Z,934.19
2018-01-16T01:16:14.359Z,934.18
2018-01-16T01:17:14.366Z,934.22
2018-01-16T01:17:53.321Z,934.16
2018-01-16T01:18:53.323Z,934.19
2018-01-16T01:19:54.332Z,934.14
2018-01-16T01:21:14.305Z,934.11
2018-01-16T01:22:14.310Z,934.10
2018-01-16T01:22:53.288Z,934.17
2018-01-16T01:23:53.271Z,934.18
2018-01-16T01:24:53.263Z,934.11
2018-01-16T01:26:14.259Z,934.14
2018-01-16T01:27:14.270Z,934.14
2018-01-16T01:27:53.263Z,934.07
2018-01-16T01:28:53.227Z,934.22
2018-01-16T01:29:53.548Z,934.15
2018-01-16T01:31:14.284Z,934.19
2018-01-16T01:32:14.263Z,934.20
2018-01-16T01:32:53.188Z,934.11
2018-01-16T01:33:53.180Z,934.12
2018-01-16T01:34:53.169Z,934.16
2018-01-16T01:36:14.164Z,934.05
2018-01-16T01:37:14.160Z,934.11
2018-01-16T01:37:53.146Z,934.04
2018-01-16T01:38:53.132Z,934.01
2018-01-16T01:39:53.119Z,933.99
2018-01-16T01:41:14.125Z,934.04
2018-01-16T01:42:14.113Z,934.08
2018-01-16T01:42:53.120Z,934.04
2018-01-16T01:43:53.087Z,934.04
2018-01-16T01:44:53.094Z,934.09
2018-01-16T01:46:14.092Z,934.17
2018-01-16T01:47:14.073Z,934.12
2018-01-16T01:47:53.049Z,934.07
2018-01-16T01:48:53.076Z,934.04
2018-01-16T01:49:53.029Z,933.87
2018-01-16T01:51:14.039Z,933.94
2018-01-16T01:52:14.030Z,933.97
2018-01-16T01:52:53.002Z,933.95
2018-01-16T01:53:53.013Z,933.93
2018-01-16T01:54:52.982Z,933.90
2018-01-16T01:56:13.978Z,933.97
2018-01-16T01:57:13.993Z,933.88
2018-01-16T01:57:52.977Z,933.95
2018-01-16T01:58:52.947Z,933.95
2018-01-16T01:59:52.937Z,933.86
2018-01-16T02:01:13.951Z,933.86
2018-01-16T02:02:14.008Z,933.85
2018-01-16T02:02:52.924Z,933.79
2018-01-16T02:03:52.910Z,933.80
2018-01-16T02:04:52.892Z,933.82
2018-01-16T02:06:13.894Z,933.76
2018-01-16T02:07:13.876Z,933.88
2018-01-16T02:07:52.865Z,933.87
2018-01-16T02:08:52.853Z,933.90
2018-01-16T02:09:52.847Z,933.95
2018-01-16T02:11:13.846Z,933.91
2018-01-16T02:12:13.831Z,933.95
2018-01-16T02:12:52.828Z,933.82
2018-01-16T02:13:52.810Z,933.77
2018-01-16T02:14:52.802Z,933.73
2018-01-16T02:16:13.788Z,933.76
2018-01-16T02:17:13.787Z,933.79
2018-01-16T02:17:52.776Z,933.71
2018-01-16T02:18:52.787Z,933.67
2018-01-16T02:19:52.762Z,933.71
2018-01-16T02:21:13.753Z,933.73
2018-01-16T02:22:13.750Z,933.61
2018-01-16T02:22:52.728Z,933.73
2018-01-16T02:23:52.719Z,933.67
2018-01-16T02:24:52.710Z,933.63
2018-01-16T02:26:13.705Z,933.74
2018-01-16T02:27:13.698Z,933.59
2018-01-16T02:27:52.691Z,933.68
2018-01-16T02:28:52.975Z,933.68
2018-01-16T02:29:52.664Z,933.74
2018-01-16T02:31:13.662Z,933.75
2018-01-16T02:32:13.704Z,933.69
2018-01-16T02:32:52.646Z,933.62
2018-01-16T02:33:52.641Z,933.70
2018-01-16T02:34:52.629Z,933.75
2018-01-16T02:36:13.615Z,933.72
2018-01-16T02:37:13.608Z,933.63
2018-01-16T02:37:52.582Z,933.72
2018-01-16T02:38:52.588Z,933.74
2018-01-16T02:39:52.581Z,933.68
2018-01-16T02:41:13.573Z,933.76
2018-01-16T02:42:13.586Z,933.70
2018-01-16T02:42:52.564Z,933.75
2018-01-16T02:43:52.533Z,933.68
2018-01-16T02:44:52.532Z,933.64
2018-01-16T02:46:13.526Z,933.71
2018-01-16T02:47:13.580Z,933.67
2018-01-16T02:47:52.512Z,933.66
2018-01-16T02:48:52.497Z,933.65
2018-01-16T02:49:52.493Z,933.64
2018-01-16T02:51:13.485Z,933.64
2018-01-16T02:52:13.477Z,933.54
2018-01-16T02:52:52.464Z,933.59
2018-01-16T02:53:52.454Z,933.54
2018-01-16T02:54:52.444Z,933.47
2018-01-16T02:56:13.443Z,933.38
2018-01-16T02:57:13.432Z,933.58
2018-01-16T02:57:52.420Z,933.63
2018-01-16T02:58:52.417Z,933.44
2018-01-16T02:59:53.081Z,933.45
2018-01-16T03:01:13.402Z,933.52
2018-01-16T03:02:13.473Z,933.50
2018-01-16T03:02:52.380Z,933.50
2018-01-16T03:03:52.383Z,933.44
2018-01-16T03:04:52.359Z,933.40
2018-01-16T03:06:13.367Z,933.46
2018-01-16T03:07:13.353Z,933.40
2018-01-16T03:07:52.334Z,933.31
2018-01-16T03:08:52.327Z,933.37
2018-01-16T03:09:52.317Z,933.36
2018-01-16T03:11:13.324Z,933.36
2018-01-16T03:12:13.302Z,933.34
2018-01-16T03:12:52.333Z,933.34
2018-01-16T03:13:52.308Z,933.43
2018-01-16T03:14:52.276Z,933.27
2018-01-16T03:16:13.274Z,933.35
2018-01-16T03:17:13.296Z,933.34
2018-01-16T03:17:52.249Z,933.30
2018-01-16T03:18:52.250Z,933.35
2018-01-16T03:19:52.233Z,933.17
2018-01-16T03:21:13.234Z,933.29
2018-01-16T03:22:13.234Z,933.40
2018-01-16T03:22:52.223Z,933.41
2018-01-16T03:23:52.200Z,933.30
2018-01-16T03:24:52.199Z,933.33
2018-01-16T03:26:13.187Z,933.17
2018-01-16T03:27:13.219Z,933.18
2018-01-16T03:27:52.164Z,933.22
2018-01-16T03:28:52.187Z,933.17
2018-01-16T03:29:52.154Z,933.28
2018-01-16T03:31:13.155Z,933.18
2018-01-16T03:32:13.211Z,933.26
2018-01-16T03:32:52.127Z,933.26
2018-01-16T03:33:52.121Z,933.18
2018-01-16T03:34:52.113Z,933.24
2018-01-16T03:36:13.123Z,933.04
2018-01-16T03:37:13.098Z,933.09
2018-01-16T03:37:52.087Z,933.10
2018-01-16T03:38:52.078Z,932.99
2018-01-16T03:39:52.068Z,933.05
2018-01-16T03:41:13.067Z,933.01
2018-01-16T03:42:13.059Z,933.07
2018-01-16T03:42:52.046Z,933.11
2018-01-16T03:43:52.040Z,933.01
2018-01-16T03:44:52.025Z,933.05
2018-01-16T03:46:13.022Z,932.97
2018-01-16T03:47:13.028Z,933.00
2018-01-16T03:47:52.002Z,932.90
2018-01-16T03:48:52.028Z,933.01
2018-01-16T03:49:51.980Z,932.91
2018-01-16T03:51:12.987Z,932.99
2018-01-16T03:52:13.000Z,933.10
2018-01-16T03:52:51.966Z,933.07
2018-01-16T03:53:51.950Z,933.12
2018-01-16T03:54:51.950Z,933.06
2018-01-16T03:56:12.940Z,933.06
2018-01-16T03:57:12.936Z,933.11
2018-01-16T03:57:51.921Z,933.05
2018-01-16T03:58:51.924Z,933.16
2018-01-16T03:59:51.896Z,933.11
2018-01-16T04:01:12.897Z,933.12
2018-01-16T04:02:12.928Z,933.09
2018-01-16T04:02:51.876Z,932.77
2018-01-16T04:03:51.883Z,932.91
2018-01-16T04:04:51.902Z,932.82
2018-01-16T04:06:12.891Z,932.92
2018-01-16T04:07:12.843Z,932.65
2018-01-16T04:07:51.834Z,932.76
2018-01-16T04:08:51.830Z,932.67
2018-01-16T04:09:51.814Z,932.74
2018-01-16T04:11:12.816Z,932.66
2018-01-16T04:12:12.816Z,932.67
2018-01-16T04:12:51.801Z,932.70
2018-01-16T04:13:51.853Z,932.65
2018-01-16T04:14:51.778Z,932.64
2018-01-16T04:16:12.794Z,932.58
2018-01-16T04:17:12.802Z,932.51
2018-01-16T04:17:51.803Z,932.60
2018-01-16T04:18:51.768Z,932.60
2018-01-16T04:19:51.757Z,932.56
2018-01-16T04:21:12.803Z,932.66
2018-01-16T04:22:12.732Z,932.53
2018-01-16T04:22:51.750Z,932.51
2018-01-16T04:23:51.788Z,932.59
2018-01-16T04:24:51.802Z,932.52
2018-01-16T04:26:12.705Z,932.38
2018-01-16T04:27:12.701Z,932.44
2018-01-16T04:27:51.705Z,932.28
2018-01-16T04:28:51.703Z,932.44
2018-01-16T04:29:51.669Z,932.52
2018-01-16T04:31:12.742Z,932.42
2018-01-16T04:32:13.385Z,932.49
2018-01-16T04:32:51.652Z,932.30
2018-01-16T04:33:51.666Z,932.33
2018-01-16T04:34:51.670Z,932.39
2018-01-16T04:36:12.690Z,932.38
2018-01-16T04:37:12.658Z,932.20
2018-01-16T04:37:51.637Z,932.32
2018-01-16T04:38:51.638Z,932.30
2018-01-16T04:39:51.587Z,932.25
2018-01-16T04:41:12.593Z,932.10
2018-01-16T04:42:12.599Z,932.11
2018-01-16T04:42:51.549Z,932.30
2018-01-16T04:43:51.570Z,932.21
2018-01-16T04:44:51.581Z,932.28
2018-01-16T04:46:12.641Z,932.37
2018-01-16T04:47:12.648Z,932.28
2018-01-16T04:47:51.554Z,932.23
2018-01-16T04:48:51.536Z,932.30
2018-01-16T04:49:51.545Z,932.30
2018-01-16T04:51:12.525Z,932.27
2018-01-16T04:52:12.540Z,932.28
2018-01-16T04:52:51.544Z,932.25
2018-01-16T04:53:51.496Z,932.27
2018-01-16T04:54:51.477Z,932.29
2018-01-16T04:56:12.479Z,932.31
2018-01-16T04:57:12.490Z,932.36
2018-01-16T04:57:51.458Z,932.30
2018-01-16T04:58:51.442Z,932.25
2018-01-16T04:59:51.429Z,932.33
2018-01-16T05:01:12.461Z,932.24
2018-01-16T05:02:12.442Z,932.29
2018-01-16T05:02:51.423Z,932.16
2018-01-16T05:03:51.386Z,932.26
2018-01-16T05:04:51.439Z,932.28
2018-01-16T05:06:12.390Z,932.24
2018-01-16T05:07:12.361Z,932.15
2018-01-16T05:07:51.401Z,932.20
2018-01-16T05:08:51.330Z,932.24
2018-01-16T05:09:51.322Z,932.11
2018-01-16T05:11:12.392Z,932.01
2018-01-16T05:12:12.358Z,931.98
2018-01-16T05:12:51.341Z,932.00
2018-01-16T05:13:51.302Z,931.95
2018-01-16T05:14:51.301Z,931.94
2018-01-16T05:16:12.296Z,931.95
2018-01-16T05:17:12.290Z,931.90
2018-01-16T05:17:51.336Z,931.94
2018-01-16T05:18:51.263Z,931.89
2018-01-16T05:19:51.357Z,931.91
2018-01-16T05:21:12.294Z,931.88
2018-01-16T05:22:13.315Z,931.96
2018-01-16T05:22:51.253Z,931.84
2018-01-16T05:23:51.210Z,931.75
2018-01-16T05:24:51.203Z,931.77
2018-01-16T05:26:12.261Z,931.71
2018-01-16T05:27:12.256Z,931.75
2018-01-16T05:27:51.177Z,931.69
2018-01-16T05:28:51.168Z,931.77
2018-01-16T05:29:51.170Z,931.82
2018-01-16T05:31:12.260Z,931.78
2018-01-16T05:32:12.198Z,931.75
2018-01-16T05:32:51.214Z,931.75
2018-01-16T05:33:51.126Z,931.74
2018-01-16T05:34:51.125Z,931.76
2018-01-16T05:36:12.124Z,931.69
2018-01-16T05:37:12.146Z,931.71
2018-01-16T05:37:51.098Z,931.73
2018-01-16T05:38:51.097Z,931.75
2018-01-16T05:39:51.137Z,931.64
2018-01-16T05:41:12.090Z,931.72
2018-01-16T05:42:12.127Z,931.73
2018-01-16T05:42:51.100Z,931.71
2018-01-16T05:43:51.080Z,931.71
2018-01-16T05:44:51.117Z,931.65
2018-01-16T05:46:12.042Z,931.71
2018-01-16T05:47:12.051Z,931.64
2018-01-16T05:47:51.137Z,931.71
2018-01-16T05:48:51.015Z,931.69
2018-01-16T05:49:51.010Z,931.72
2018-01-16T05:51:12.042Z,931.67
2018-01-16T05:52:12.023Z,931.62
2018-01-16T05:52:50.990Z,931.62
2018-01-16T05:53:51.003Z,931.61
2018-01-16T05:54:51.928Z,931.56
2018-01-16T05:56:12.843Z,931.53
2018-01-16T05:57:12.811Z,931.55
2018-01-16T05:57:50.927Z,931.53
2018-01-16T05:58:50.907Z,931.53
2018-01-16T05:59:50.898Z,931.50
2018-01-16T06:01:11.945Z,931.47
2018-01-16T06:02:11.903Z,931.44
2018-01-16T06:02:50.877Z,931.42
2018-01-16T06:03:50.873Z,931.37
2018-01-16T06:04:50.862Z,931.31
2018-01-16T06:06:11.922Z,931.34
2018-01-16T06:07:12.017Z,931.45
2018-01-16T06:07:50.871Z,931.30
2018-01-16T06:08:50.829Z,931.30
2018-01-16T06:09:50.840Z,931.29
2018-01-16T06:11:11.889Z,931.28
2018-01-16T06:12:12.171Z,931.24
2018-01-16T06:12:50.801Z,931.27
2018-01-16T06:13:50.816Z,931.26
2018-01-16T06:14:50.778Z,931.17
2018-01-16T06:16:11.794Z,931.28
2018-01-16T06:17:11.770Z,931.24
2018-01-16T06:17:50.772Z,931.27
2018-01-16T06:18:50.777Z,931.26
2018-01-16T06:19:51.000Z,931.22
2018-01-16T06:21:11.752Z,931.23
2018-01-16T06:22:11.761Z,931.23
2018-01-16T06:22:50.766Z,931.18
2018-01-16T06:23:50.740Z,931.23
2018-01-16T06:24:50.752Z,931.22
2018-01-16T06:26:11.799Z,931.31
2018-01-16T06:27:11.731Z,931.26
2018-01-16T06:27:50.716Z,931.34
2018-01-16T06:28:50.670Z,931.34
2018-01-16T06:29:50.742Z,931.31
2018-01-16T06:31:11.652Z,931.35
2018-01-16T06:32:11.736Z,931.40
2018-01-16T06:32:50.632Z,931.28
2018-01-16T06:33:50.697Z,931.30
2018-01-16T06:34:50.690Z,931.36
2018-01-16T06:36:11.742Z,931.38
2018-01-16T06:37:11.655Z,931.30
2018-01-16T06:37:50.667Z,931.28
2018-01-16T06:38:50.586Z,931.30
2018-01-16T06:39:50.578Z,931.25
2018-01-16T06:41:11.633Z,931.29
2018-01-16T06:42:11.622Z,931.21
2018-01-16T06:42:50.577Z,931.21
2018-01-16T06:43:50.557Z,931.33
2018-01-16T06:44:50.544Z,931.18
2018-01-16T06:46:13.393Z,931.08
2018-01-16T06:47:11.700Z,931.29
2018-01-16T06:47:50.545Z,931.22
2018-01-16T06:48:50.578Z,931.34
2018-01-16T06:49:50.512Z,931.16
2018-01-16T06:51:11.876Z,931.26
2018-01-16T06:52:11.530Z,931.25
2018-01-16T06:52:50.548Z,931.17
2018-01-16T06:53:50.535Z,931.37
2018-01-16T06:54:50.591Z,931.30
2018-01-16T06:56:11.542Z,931.42
2018-01-16T06:57:11.457Z,931.38
2018-01-16T06:57:50.617Z,931.27
2018-01-16T06:58:51.950Z,931.25
2018-01-16T06:59:50.415Z,931.33
2018-01-16T07:01:11.473Z,931.37
2018-01-16T07:02:11.494Z,931.39
2018-01-16T07:02:50.422Z,931.39
2018-01-16T07:03:50.377Z,931.43
2018-01-16T07:04:50.371Z,931.39
2018-01-16T07:06:11.376Z,931.29
2018-01-16T07:07:11.455Z,931.38
2018-01-16T07:07:50.363Z,931.42
2018-01-16T07:08:50.348Z,931.43
2018-01-16T07:09:50.410Z,931.26
2018-01-16T07:11:11.373Z,931.32
2018-01-16T07:12:11.373Z,931.27
2018-01-16T07:12:50.311Z,931.23
2018-01-16T07:13:50.304Z,931.23
2018-01-16T07:14:50.304Z,931.25
2018-01-16T07:16:11.339Z,931.34
2018-01-16T07:17:11.315Z,931.28
2018-01-16T07:17:50.269Z,931.31
2018-01-16T07:18:50.273Z,931.33
2018-01-16T07:19:50.258Z,931.37
2018-01-16T07:21:11.257Z,931.48
2018-01-16T07:22:11.253Z,931.46
2018-01-16T07:22:50.232Z,931.38
2018-01-16T07:23:50.259Z,931.46
2018-01-16T07:24:50.220Z,931.39
2018-01-16T07:26:11.219Z,931.49
2018-01-16T07:27:11.217Z,931.50
2018-01-16T07:27:50.206Z,931.42
2018-01-16T07:28:50.181Z,931.46
2018-01-16T07:29:50.183Z,931.59
2018-01-16T07:31:11.171Z,931.50
2018-01-16T07:32:11.240Z,931.48
2018-01-16T07:32:50.164Z,931.57
2018-01-16T07:33:50.148Z,931.54
2018-01-16T07:34:50.137Z,931.53
2018-01-16T07:36:11.139Z,931.45
2018-01-16T07:37:11.134Z,931.52
2018-01-16T07:37:50.120Z,931.48
2018-01-16T07:38:50.135Z,931.54
2018-01-16T07:39:50.108Z,931.53
2018-01-16T07:41:11.102Z,931.49
2018-01-16T07:42:11.094Z,931.41
2018-01-16T07:42:50.088Z,931.40
2018-01-16T07:43:50.065Z,931.47
2018-01-16T07:44:50.071Z,931.49
2018-01-16T07:46:11.069Z,931.47
2018-01-16T07:47:11.056Z,931.49
2018-01-16T07:47:50.043Z,931.51
2018-01-16T07:48:50.032Z,931.53
2018-01-16T07:49:50.031Z,931.46
2018-01-16T07:51:11.034Z,931.52
2018-01-16T07:52:11.011Z,931.52
2018-01-16T07:52:50.013Z,931.49
2018-01-16T07:53:49.995Z,931.52
2018-01-16T07:54:49.985Z,931.48
2018-01-16T07:56:10.978Z,931.47
2018-01-16T07:57:10.973Z,931.46
2018-01-16T07:57:49.962Z,931.41
2018-01-16T07:58:49.954Z,931.49
2018-01-16T07:59:49.945Z,931.45
2018-01-16T08:01:10.940Z,931.35
2018-01-16T08:02:10.960Z,931.56
2018-01-16T08:02:49.917Z,931.63
2018-01-16T08:03:49.917Z,931.55
2018-01-16T08:04:49.906Z,931.52
2018-01-16T08:06:10.902Z,931.52
2018-01-16T08:07:10.922Z,931.46
2018-01-16T08:07:49.883Z,931.44
2018-01-16T08:08:49.874Z,931.58
2018-01-16T08:09:49.862Z,931.54
2018-01-16T08:11:10.858Z,931.53
2018-01-16T08:12:10.857Z,931.63
2018-01-16T08:12:49.840Z,931.54
2018-01-16T08:13:49.835Z,931.62
2018-01-16T08:14:49.827Z,931.62
2018-01-16T08:16:10.860Z,931.78
2018-01-16T08:17:10.851Z,931.46
2018-01-16T08:17:49.818Z,931.52
2018-01-16T08:18:49.794Z,931.51
2018-01-16T08:19:49.791Z,931.55
2018-01-16T08:21:10.792Z,931.61
2018-01-16T08:22:10.784Z,931.56
2018-01-16T08:22:49.772Z,931.58
2018-01-16T08:23:49.765Z,931.58
2018-01-16T08:24:49.764Z,931.60
2018-01-16T08:26:10.753Z,931.55
2018-01-16T08:27:10.741Z,931.51
2018-01-16T08:27:49.758Z,931.62
2018-01-16T08:28:49.729Z,931.43
2018-01-16T08:29:49.725Z,931.63
2018-01-16T08:31:10.724Z,931.53
2018-01-16T08:32:10.731Z,931.45
2018-01-16T08:32:49.744Z,931.46
2018-01-16T08:33:49.729Z,931.58
2018-01-16T08:34:49.700Z,931.51
2018-01-16T08:36:10.743Z,931.53
2018-01-16T08:37:10.682Z,931.54
2018-01-16T08:37:49.676Z,931.55
2018-01-16T08:38:49.675Z,931.53
2018-01-16T08:39:49.678Z,931.72
2018-01-16T08:41:10.644Z,931.64
2018-01-16T08:42:10.648Z,931.59
2018-01-16T08:42:49.637Z,931.59
2018-01-16T08:43:49.628Z,931.60
2018-01-16T08:44:49.618Z,931.41
2018-01-16T08:46:10.631Z,931.56
2018-01-16T08:47:10.632Z,931.52
2018-01-16T08:47:49.609Z,931.42
2018-01-16T08:48:49.594Z,931.55
2018-01-16T08:49:49.585Z,931.51
2018-01-16T08:51:10.596Z,931.58
2018-01-16T08:52:10.578Z,931.75
2018-01-16T08:52:49.563Z,931.71
2018-01-16T08:53:49.559Z,931.64
2018-01-16T08:54:49.553Z,931.57
2018-01-16T08:56:10.627Z,931.67
2018-01-16T08:57:10.549Z,931.73
2018-01-16T08:57:49.532Z,931.71
2018-01-16T08:58:49.521Z,931.81
2018-01-16T08:59:49.516Z,931.75
2018-01-16T09:01:10.514Z,931.88
2018-01-16T09:02:10.531Z,931.89
2018-01-16T09:02:49.501Z,931.91
2018-01-16T09:03:49.488Z,931.90
2018-01-16T09:04:49.480Z,931.83
2018-01-16T09:06:10.484Z,931.86
2018-01-16T09:07:10.471Z,931.92
2018-01-16T09:07:49.465Z,931.93
2018-01-16T09:08:49.452Z,931.85
2018-01-16T09:09:49.445Z,931.96
2018-01-16T09:11:10.440Z,931.87
2018-01-16T09:12:10.434Z,931.89
2018-01-16T09:12:49.421Z,931.91
2018-01-16T09:13:49.421Z,931.92
2018-01-16T09:14:49.407Z,931.88
2018-01-16T09:16:10.414Z,931.98
2018-01-16T09:17:10.402Z,931.97
2018-01-16T09:17:49.385Z,931.95
2018-01-16T09:18:49.415Z,931.96
2018-01-16T09:19:49.377Z,931.92
2018-01-16T09:21:10.371Z,931.94
2018-01-16T09:22:10.361Z,931.96
2018-01-16T09:22:49.359Z,931.93
2018-01-16T09:23:49.368Z,931.97
2018-01-16T09:24:49.342Z,931.97
2018-01-16T09:26:10.348Z,931.96
2018-01-16T09:27:10.327Z,931.85
2018-01-16T09:27:49.316Z,931.90
2018-01-16T09:28:49.314Z,931.80
2018-01-16T09:29:49.301Z,931.86
2018-01-16T09:31:10.303Z,931.77
2018-01-16T09:32:10.330Z,931.80
2018-01-16T09:32:49.277Z,931.83
2018-01-16T09:33:49.291Z,931.75
2018-01-16T09:34:49.266Z,931.74
2018-01-16T09:36:10.263Z,931.78
2018-01-16T09:37:10.273Z,931.77
2018-01-16T09:37:49.251Z,931.75
2018-01-16T09:38:49.246Z,931.72
2018-01-16T09:39:49.258Z,931.80
2018-01-16T09:41:10.231Z,931.65
2018-01-16T09:42:10.237Z,931.66
2018-01-16T09:42:49.216Z,931.74
2018-01-16T09:43:49.217Z,931.75
2018-01-16T09:44:49.237Z,931.93
2018-01-16T09:46:10.203Z,931.95
2018-01-16T09:47:10.200Z,931.90
2018-01-16T09:47:49.216Z,931.88
2018-01-16T09:48:49.496Z,931.76
2018-01-16T09:49:49.177Z,931.83
2018-01-16T09:51:10.170Z,931.89
2018-01-16T09:52:10.166Z,931.91
2018-01-16T09:52:49.163Z,931.82
2018-01-16T09:53:49.167Z,931.83
2018-01-16T09:54:49.149Z,931.82
2018-01-16T09:56:10.151Z,931.89
2018-01-16T09:57:10.140Z,931.85
2018-01-16T09:57:49.130Z,931.80
2018-01-16T09:58:49.134Z,931.84
2018-01-16T09:59:49.126Z,931.83
2018-01-16T10:01:10.123Z,931.96
2018-01-16T10:02:10.153Z,932.00
2018-01-16T10:02:49.108Z,931.99
2018-01-16T10:03:49.100Z,932.00
2018-01-16T10:04:49.103Z,931.90
2018-01-16T10:06:10.108Z,931.88
2018-01-16T10:07:10.103Z,931.78
2018-01-16T10:07:49.115Z,931.78
2018-01-16T10:08:49.092Z,931.67
2018-01-16T10:09:49.080Z,931.58
2018-01-16T10:11:10.087Z,931.63
2018-01-16T10:12:10.077Z,931.61
2018-01-16T10:12:49.066Z,931.63
2018-01-16T10:13:49.065Z,931.71
2018-01-16T10:14:49.069Z,931.65
2018-01-16T10:16:10.061Z,931.66
2018-01-16T10:17:10.065Z,931.51
2018-01-16T10:17:49.053Z,931.52
2018-01-16T10:18:49.046Z,931.52
2018-01-16T10:19:49.050Z,931.58
2018-01-16T10:21:10.052Z,931.63
2018-01-16T10:22:10.038Z,931.59
2018-01-16T10:22:49.025Z,931.49
2018-01-16T10:23:49.023Z,931.46
2018-01-16T10:24:49.037Z,931.42
2018-01-16T10:26:10.028Z,931.47
2018-01-16T10:27:10.021Z,931.40
2018-01-16T10:27:49.015Z,931.49
2018-01-16T10:28:49.002Z,931.56
2018-01-16T10:29:48.995Z,931.45
2018-01-16T10:31:10.003Z,931.50
2018-01-16T10:32:10.015Z,931.36
2018-01-16T10:32:48.983Z,931.51
2018-01-16T10:33:49.001Z,931.59
2018-01-16T10:34:48.970Z,931.46
2018-01-16T10:36:09.976Z,931.37
2018-01-16T10:37:09.977Z,931.43
2018-01-16T10:37:48.964Z,931.31
2018-01-16T10:38:48.954Z,931.35
2018-01-16T10:39:48.952Z,931.34
2018-01-16T10:41:09.968Z,931.35
2018-01-16T10:42:09.942Z,931.39
2018-01-16T10:42:48.941Z,931.32
2018-01-16T10:43:48.920Z,931.39
2018-01-16T10:44:48.920Z,931.33
2018-01-16T10:46:09.923Z,931.34
2018-01-16T10:47:09.919Z,931.35
2018-01-16T10:47:48.905Z,931.23
2018-01-16T10:48:48.891Z,931.31
2018-01-16T10:49:48.900Z,931.28
2018-01-16T10:51:09.899Z,931.18
2018-01-16T10:52:09.882Z,931.22
2018-01-16T10:52:48.871Z,931.35
2018-01-16T10:53:48.859Z,931.33
2018-01-16T10:54:48.899Z,931.31
2018-01-16T10:56:09.867Z,931.35
2018-01-16T10:57:09.855Z,931.28
2018-01-16T10:57:48.838Z,931.35
2018-01-16T10:58:48.859Z,931.22
2018-01-16T10:59:48.919Z,931.19
2018-01-16T11:01:09.829Z,931.19
2018-01-16T11:02:09.905Z,931.13
2018-01-16T11:02:48.810Z,931.03
2018-01-16T11:03:48.806Z,930.97
2018-01-16T11:04:48.799Z,931.10
2018-01-16T11:06:09.803Z,931.01
2018-01-16T11:07:09.799Z,931.00
2018-01-16T11:07:48.794Z,931.08
2018-01-16T11:08:48.784Z,931.04
2018-01-16T11:09:48.769Z,930.97
2018-01-16T11:11:09.774Z,930.88
2018-01-16T11:12:09.759Z,930.85
2018-01-16T11:12:48.773Z,930.83
2018-01-16T11:13:48.759Z,930.86
2018-01-16T11:14:48.800Z,930.77
2018-01-16T11:16:09.741Z,930.84
2018-01-16T11:17:09.746Z,930.72
2018-01-16T11:17:48.740Z,930.83
2018-01-16T11:18:48.720Z,930.76
2018-01-16T11:19:48.713Z,930.70
2018-01-16T11:21:09.712Z,930.72
2018-01-16T11:22:09.713Z,930.70
2018-01-16T11:22:48.691Z,930.73
2018-01-16T11:23:48.684Z,930.72
2018-01-16T11:24:48.680Z,930.65
2018-01-16T11:26:09.678Z,930.66
2018-01-16T11:27:09.669Z,930.62
2018-01-16T11:27:48.658Z,930.69
2018-01-16T11:28:48.654Z,930.66
2018-01-16T11:29:48.648Z,930.71
2018-01-16T11:31:09.651Z,930.72
2018-01-16T11:32:09.674Z,930.62
2018-01-16T11:32:48.621Z,930.65
2018-01-16T11:33:48.633Z,930.58
2018-01-16T11:34:48.615Z,930.67
2018-01-16T11:36:09.608Z,930.61
2018-01-16T11:37:09.608Z,930.57
2018-01-16T11:37:48.591Z,930.63
2018-01-16T11:38:48.585Z,930.62
2018-01-16T11:39:48.580Z,930.64
2018-01-16T11:41:09.583Z,930.59
2018-01-16T11:42:09.582Z,930.62
2018-01-16T11:42:48.554Z,930.45
2018-01-16T11:43:48.554Z,930.53
2018-01-16T11:44:48.562Z,930.44
2018-01-16T11:46:09.589Z,930.47
2018-01-16T11:47:09.552Z,930.42
2018-01-16T11:47:48.534Z,930.50
2018-01-16T11:48:48.523Z,930.41
2018-01-16T11:49:48.517Z,930.38
2018-01-16T11:51:09.519Z,930.37
2018-01-16T11:52:09.514Z,930.46
2018-01-16T11:52:48.498Z,930.37
2018-01-16T11:53:48.497Z,930.26
2018-01-16T11:54:48.494Z,930.36
2018-01-16T11:56:09.469Z,930.15
2018-01-16T11:57:09.491Z,930.21
2018-01-16T11:57:48.490Z,930.21
2018-01-16T11:58:48.457Z,930.26
2018-01-16T11:59:48.450Z,930.11
2018-01-16T12:01:09.452Z,930.20
2018-01-16T12:02:09.495Z,930.27
2018-01-16T12:02:48.418Z,930.29
2018-01-16T12:03:48.428Z,930.30
2018-01-16T12:04:48.422Z,930.20
2018-01-16T12:06:09.419Z,930.13
2018-01-16T12:07:09.438Z,930.08
2018-01-16T12:07:48.404Z,930.16
2018-01-16T12:08:48.395Z,930.02
2018-01-16T12:09:48.391Z,930.09
2018-01-16T12:11:09.389Z,930.10
2018-01-16T12:12:09.386Z,930.17
2018-01-16T12:12:48.363Z,929.93
2018-01-16T12:13:48.360Z,930.00
2018-01-16T12:14:48.348Z,929.94
2018-01-16T12:16:09.373Z,930.05
2018-01-16T12:17:09.352Z,930.00
2018-01-16T12:17:48.343Z,930.00
2018-01-16T12:18:48.364Z,930.01
2018-01-16T12:19:48.318Z,930.02
2018-01-16T12:21:09.337Z,929.96
2018-01-16T12:22:09.307Z,930.00
2018-01-16T12:22:48.316Z,930.05
2018-01-16T12:23:48.289Z,929.96
2018-01-16T12:24:48.298Z,929.96
2018-01-16T12:26:09.289Z,929.85
2018-01-16T12:27:09.291Z,929.80
2018-01-16T12:27:48.261Z,929.82
2018-01-16T12:28:48.251Z,929.80